createdAt,value
2022-10-04T05:16:45.132Z,69.58
2022-10-04T05:22:12.915Z,69.37
2022-10-04T05:27:45.476Z,69.42
2022-10-04T05:33:08.905Z,69.29
2022-10-04T05:38:38.950Z,69.67
2022-10-04T05:44:01.846Z,69.10
2022-10-04T05:49:25.531Z,69.34
2022-10-04T05:54:46.497Z,68.78
2022-10-04T06:00:10.606Z,68.89
2022-10-04T06:05:37.113Z,69.16
2022-10-04T06:11:23.185Z,69.22
2022-10-04T06:16:53.351Z,68.74
2022-10-04T06:22:18.562Z,68.86
2022-10-04T06:28:00.598Z,68.74
2022-10-04T06:33:43.351Z,68.40
2022-10-04T06:39:07.081Z,68.43
2022-10-04T06:44:42.329Z,68.38
2022-10-04T06:50:33.172Z,68.02
2022-10-04T06:56:07.889Z,68.31
2022-10-04T07:01:35.110Z,68.22
2022-10-04T07:07:27.279Z,67.95
2022-10-04T07:13:20.452Z,67.18
2022-10-04T07:19:04.585Z,66.50
2022-10-04T07:24:54.425Z,65.92
2022-10-04T07:30:18.885Z,65.15
2022-10-04T07:35:48.819Z,63.98
2022-10-04T07:41:20.081Z,62.66
2022-10-04T07:47:11.808Z,62.66
2022-10-04T07:52:57.763Z,63.69
2022-10-04T07:58:18.803Z,64.61
2022-10-04T08:03:59.643Z,64.89
2022-10-04T08:09:43.507Z,64.79
2022-10-04T08:15:13.708Z,64.58
2022-10-04T08:21:00.352Z,65.09
2022-10-04T08:26:25.882Z,65.30
2022-10-04T08:32:23.137Z,65.25
2022-10-04T08:38:07.278Z,65.08
2022-10-04T08:44:02.369Z,64.87
2022-10-04T08:49:42.015Z,64.91
2022-10-04T08:55:35.245Z,65.35
2022-10-04T09:01:06.269Z,65.54
2022-10-04T09:06:45.315Z,65.28
2022-10-04T09:12:09.261Z,65.25
2022-10-04T09:17:52.853Z,65.50
2022-10-04T09:23:23.149Z,64.92
2022-10-04T09:29:11.561Z,64.45
2022-10-04T09:34:46.143Z,64.39
2022-10-04T09:40:22.289Z,63.63
2022-10-04T09:45:50.286Z,63.55
2022-10-04T09:52:03.650Z,63.22
2022-10-04T09:57:53.472Z,62.78
2022-10-04T10:03:23.545Z,62.26
2022-10-04T10:09:13.816Z,61.62
2022-10-04T10:15:11.651Z,61.17
2022-10-04T10:20:35.869Z,61.40
2022-10-04T10:26:08.899Z,60.30
2022-10-04T10:32:15.160Z,58.15
2022-10-04T10:37:36.076Z,57.64
2022-10-04T10:43:18.003Z,58.16
2022-10-04T10:49:02.279Z,59.05
2022-10-04T10:54:38.501Z,58.64
2022-10-04T11:00:23.429Z,58.19
2022-10-04T11:06:08.947Z,58.16
2022-10-04T11:11:36.383Z,57.04
2022-10-04T11:17:15.553Z,57.07
2022-10-04T11:23:10.919Z,57.00
2022-10-04T11:28:36.253Z,57.43
2022-10-04T11:34:19.352Z,55.83
2022-10-04T11:40:14.294Z,55.85
2022-10-04T11:46:14.292Z,56.27
2022-10-04T11:51:53.422Z,56.92
2022-10-04T11:57:52.523Z,57.80
2022-10-04T12:03:34.756Z,57.03
2022-10-04T12:09:43.860Z,57.36
2022-10-04T12:15:23.768Z,57.34
2022-10-04T12:21:28.957Z,57.67
2022-10-04T12:26:49.901Z,57.17
2022-10-04T12:32:14.968Z,57.19
2022-10-04T12:38:09.884Z,56.79
2022-10-04T12:43:46.164Z,57.01
2022-10-04T12:49:42.339Z,57.10
2022-10-04T12:55:47.551Z,58.09
2022-10-04T13:01:32.626Z,57.84
2022-10-04T13:07:08.999Z,57.90
2022-10-04T13:13:04.452Z,58.07
2022-10-04T13:18:31.975Z,58.65
2022-10-04T13:24:18.501Z,59.19
2022-10-04T13:30:27.683Z,59.32
2022-10-04T13:36:07.400Z,59.44
2022-10-04T13:41:37.554Z,59.19
2022-10-04T13:46:59.106Z,59.13
2022-10-04T13:52:44.585Z,59.16
2022-10-04T13:58:33.357Z,59.11
2022-10-04T14:04:03.368Z,59.17
2022-10-04T14:09:39.642Z,59.26
2022-10-04T14:15:06.435Z,59.37
2022-10-04T14:20:27.354Z,59.39
2022-10-04T14:26:00.517Z,59.47
2022-10-04T14:31:57.613Z,59.81
2022-10-04T14:37:46.908Z,59.67
2022-10-04T14:43:35.449Z,59.97
2022-10-04T14:48:58.912Z,60.21
2022-10-04T14:54:22.639Z,60.42
2022-10-04T15:00:03.359Z,60.26
2022-10-04T15:05:39.524Z,60.41
2022-10-04T15:11:07.426Z,60.24
2022-10-04T15:16:59.175Z,60.50
2022-10-04T15:22:29.604Z,60.91
2022-10-04T15:27:56.578Z,61.25
2022-10-04T15:33:32.807Z,61.04
2022-10-04T15:39:02.931Z,61.85
2022-10-04T15:45:05.522Z,62.33
2022-10-04T15:50:34.071Z,62.56
2022-10-04T15:56:30.546Z,62.58
2022-10-04T16:02:02.514Z,63.19
2022-10-04T16:07:52.103Z,63.75
2022-10-04T16:13:31.174Z,64.22
2022-10-04T16:19:16.683Z,64.05
2022-10-04T16:24:50.524Z,64.69
2022-10-04T16:30:28.855Z,64.74
2022-10-04T16:36:04.351Z,65.01
2022-10-04T16:42:00.245Z,65.80
2022-10-04T16:47:31.075Z,65.74
2022-10-04T16:53:19.002Z,66.17
2022-10-04T16:58:57.195Z,66.58
2022-10-04T17:04:36.956Z,66.45
2022-10-04T17:10:18.954Z,66.98
2022-10-04T17:15:43.229Z,67.35
2022-10-04T17:21:20.686Z,67.27
2022-10-04T17:26:41.818Z,67.31
2022-10-04T17:32:06.233Z,67.45
2022-10-04T17:37:40.656Z,67.44
2022-10-04T17:43:41.223Z,67.74
2022-10-04T17:49:40.600Z,68.28
2022-10-04T17:55:16.735Z,67.86
2022-10-04T18:00:57.922Z,67.97
2022-10-04T18:06:31.372Z,68.41
2022-10-04T18:12:00.562Z,68.36
2022-10-04T18:17:39.045Z,68.16
2022-10-04T18:23:25.192Z,68.52
2022-10-04T18:28:47.856Z,68.24
2022-10-04T18:34:17.192Z,68.71
2022-10-04T18:39:53.277Z,69.06
2022-10-04T18:45:28.445Z,68.86
2022-10-04T18:50:49.579Z,68.84
2022-10-04T18:56:13.070Z,68.91
2022-10-04T19:02:13.044Z,68.69
2022-10-04T19:07:40.050Z,68.74
2022-10-04T19:13:03.954Z,68.99
2022-10-04T19:19:10.789Z,69.11
2022-10-04T19:24:37.261Z,69.10
2022-10-04T19:30:04.323Z,69.21
2022-10-04T19:35:43.614Z,68.88
2022-10-04T19:41:13.600Z,68.94
2022-10-04T19:47:06.202Z,68.92
2022-10-04T19:52:53.288Z,69.16
2022-10-04T19:58:37.147Z,69.47
2022-10-04T20:04:16.544Z,69.17
2022-10-04T20:09:37.278Z,69.40
2022-10-04T20:15:26.650Z,69.73
2022-10-04T20:20:54.439Z,69.60
2022-10-04T20:27:01.229Z,69.88
2022-10-04T20:32:29.925Z,69.52
2022-10-04T20:38:07.894Z,69.67
2022-10-04T20:43:54.432Z,69.71
2022-10-04T20:49:17.357Z,69.51
2022-10-04T20:54:38.815Z,69.59
2022-10-04T21:00:00.164Z,69.35
2022-10-04T21:05:25.065Z,69.33
2022-10-04T21:11:20.115Z,69.57
2022-10-04T21:16:49.934Z,69.72
2022-10-04T21:22:31.882Z,69.84
2022-10-04T21:27:52.824Z,69.77
2022-10-04T21:33:13.592Z,69.57
2022-10-04T21:38:34.483Z,69.95
2022-10-04T21:43:55.326Z,69.89
2022-10-04T21:49:16.188Z,69.65
2022-10-04T21:54:37.079Z,69.65
